Time;durP1;ratioP1;P1;durP2;ratioP2;P2;SDS_P1;SDS_P2;PMS_P1;PMS_P2;Temp;Humidity;BMP_temperature;BMP_pressure;BME280_temperature;BME280_humidity;BME280_pressure;Samples;Min_cycle;Max_cycle;Signal;HPM_P1;HPM_P2
2023/12/07 00:00:29;;;;;;;13.85;8.35;;;;;;;9.40;66.70;98410.50;4956832;29;20067;-78
2023/12/07 00:02:55;;;;;;;11.45;7.03;;;;;;;9.41;66.89;98419.97;4957418;28;20036;-78
2023/12/07 00:05:20;;;;;;;12.98;7.30;;;;;;;9.39;66.88;98417.47;4940602;29;20490;-77
2023/12/07 00:07:46;;;;;;;13.05;7.90;;;;;;;9.35;66.89;98416.06;4957397;28;20052;-78
2023/12/07 00:10:11;;;;;;;11.80;6.97;;;;;;;9.31;66.87;98417.22;4962878;28;20054;-79
2023/12/07 00:12:37;;;;;;;10.18;6.60;;;;;;;9.29;66.81;98416.50;4963354;28;20023;-78
2023/12/07 00:15:02;;;;;;;11.52;7.25;;;;;;;9.23;66.60;98403.94;4937182;29;20036;-78
2023/12/07 00:17:28;;;;;;;10.80;7.13;;;;;;;9.17;66.60;98404.41;4961954;28;20499;-77
2023/12/07 00:19:53;;;;;;;13.23;7.40;;;;;;;9.18;66.79;98409.50;4971580;28;20491;-79
2023/12/07 00:22:20;;;;;;;11.38;6.80;;;;;;;9.18;66.57;98427.75;4956332;28;20505;-78
2023/12/07 00:24:45;;;;;;;12.30;6.65;;;;;;;9.16;66.07;98427.03;4955536;29;20039;-79
2023/12/07 00:27:11;;;;;;;13.30;6.57;;;;;;;9.11;66.61;98423.94;4955628;29;20045;-78
2023/12/07 00:29:37;;;;;;;11.98;6.72;;;;;;;9.08;66.55;98424.19;4947217;29;20048;-79
2023/12/07 00:32:04;;;;;;;14.35;7.10;;;;;;;9.03;66.59;98424.53;4923546;29;20094;-77
2023/12/07 00:34:29;;;;;;;12.38;7.20;;;;;;;9.07;66.39;98437.31;4946227;29;20400;-79
2023/12/07 00:36:55;;;;;;;12.55;7.88;;;;;;;9.02;66.51;98437.66;4971318;28;20102;-77
2023/12/07 00:39:20;;;;;;;12.20;8.00;;;;;;;8.97;66.61;98431.97;4955308;29;20463;-77
2023/12/07 00:41:47;;;;;;;13.30;8.27;;;;;;;8.91;66.52;98422.84;4923667;29;20043;-78
2023/12/07 00:44:16;;;;;;;13.27;7.93;;;;;;;8.97;66.35;98443.22;4939470;29;20403;-79
2023/12/07 00:46:41;;;;;;;16.08;8.82;;;;;;;8.96;66.70;98440.72;4961413;28;20039;-79
2023/12/07 00:49:07;;;;;;;14.18;9.02;;;;;;;8.96;66.50;98446.75;4952846;29;20028;-78
2023/12/07 00:51:32;;;;;;;15.43;8.98;;;;;;;8.94;66.51;98438.22;4939177;29;20039;-78
2023/12/07 00:53:58;;;;;;;15.38;9.30;;;;;;;8.93;66.39;98440.94;4972100;28;20061;-78
2023/12/07 00:56:24;;;;;;;17.08;8.90;;;;;;;8.88;66.65;98431.69;4956086;28;20055;-77
2023/12/07 00:58:49;;;;;;;12.73;8.68;;;;;;;8.92;66.72;98428.84;4956066;28;20035;-77
2023/12/07 01:01:15;;;;;;;13.98;8.60;;;;;;;8.90;66.15;98422.94;4939805;29;20042;-77
2023/12/07 01:03:40;;;;;;;12.68;7.95;;;;;;;8.91;66.45;98425.44;4938840;29;20035;-77
2023/12/07 01:06:06;;;;;;;13.98;7.85;;;;;;;8.88;66.66;98416.06;4939557;29;20061;-77
2023/12/07 01:08:32;;;;;;;13.38;7.53;;;;;;;8.89;66.47;98422.13;4955918;28;20086;-77
2023/12/07 01:10:57;;;;;;;12.88;7.65;;;;;;;8.91;66.58;98416.81;4955593;29;20069;-77
2023/12/07 01:13:23;;;;;;;12.00;7.35;;;;;;;8.88;66.54;98415.25;4939574;29;20038;-78
2023/12/07 01:15:49;;;;;;;12.23;7.40;;;;;;;8.88;66.31;98415.25;4939371;29;20039;-78
2023/12/07 01:18:15;;;;;;;10.80;6.90;;;;;;;8.86;66.63;98414.53;4955734;28;20031;-78
2023/12/07 01:20:41;;;;;;;11.05;7.13;;;;;;;8.85;66.79;98421.50;4955455;29;20039;-78
2023/12/07 01:23:08;;;;;;;10.70;6.25;;;;;;;8.88;66.66;98429.09;4955638;28;20162;-84
2023/12/07 01:25:34;;;;;;;9.70;6.22;;;;;;;8.89;66.63;98424.72;4955625;28;20028;-77
2023/12/07 01:27:59;;;;;;;11.45;6.22;;;;;;;8.91;66.66;98428.03;4971785;28;20038;-79
2023/12/07 01:30:25;;;;;;;10.10;6.50;;;;;;;8.84;66.49;98412.06;4955460;29;20046;-79
2023/12/07 01:32:50;;;;;;;10.80;5.93;;;;;;;8.91;66.86;98422.00;4956055;29;20035;-78
2023/12/07 01:35:16;;;;;;;14.13;5.68;;;;;;;8.93;66.70;98422.72;4939677;29;20050;-77
2023/12/07 01:37:41;;;;;;;10.23;5.57;;;;;;;8.88;66.69;98410.03;4955061;29;20051;-79
2023/12/07 01:40:10;;;;;;;9.48;5.20;;;;;;;8.93;66.70;98418.34;4939691;29;20090;-79
2023/12/07 01:42:38;;;;;;;;;;;;;;;8.95;66.59;98421.66;4939577;29;20027;-78
2023/12/07 01:45:07;;;;;;;8.77;4.85;;;;;;;8.92;66.72;98426.25;4955334;29;19910;-79
2023/12/07 01:47:32;;;;;;;8.43;4.75;;;;;;;8.91;66.99;98420.22;4955236;28;20475;-79
2023/12/07 01:49:58;;;;;;;7.28;4.72;;;;;;;8.95;66.83;98426.03;4954952;29;20035;-77
2023/12/07 01:52:25;;;;;;;9.15;4.65;;;;;;;8.96;66.78;98425.91;4954914;29;20039;-78
2023/12/07 01:54:50;;;;;;;6.20;4.40;;;;;;;8.96;66.56;98422.50;4939043;29;20046;-79
2023/12/07 01:57:16;;;;;;;6.60;4.40;;;;;;;8.97;66.92;98427.59;4938753;29;20047;-77
2023/12/07 01:59:42;;;;;;;6.75;4.53;;;;;;;8.96;66.81;98412.91;4954787;29;20058;-78
2023/12/07 02:02:07;;;;;;;7.70;4.57;;;;;;;9.00;66.45;98418.72;4942646;29;20039;-78
2023/12/07 02:04:34;;;;;;;8.55;4.90;;;;;;;9.05;66.96;98422.63;4970797;28;20399;-77
2023/12/07 02:06:59;;;;;;;7.55;4.28;;;;;;;9.07;66.52;98422.50;4954565;29;20039;-77
2023/12/07 02:09:25;;;;;;;11.85;4.28;;;;;;;9.07;66.79;98424.28;4954353;29;20478;-78
2023/12/07 02:11:50;;;;;;;6.68;4.40;;;;;;;9.08;66.73;98421.59;4954282;29;20058;-77
2023/12/07 02:14:17;;;;;;;6.70;4.45;;;;;;;9.09;66.60;98420.63;4970094;28;20046;-76
2023/12/07 02:16:48;;;;;;;6.07;4.38;;;;;;;9.08;66.82;98424.19;4954501;28;20039;-78
2023/12/07 02:19:43;;;;;;;8.20;4.43;;;;;;;9.11;66.61;98431.78;4954339;29;20031;-79
2023/12/07 02:22:25;;;;;;;6.50;4.30;;;;;;;9.13;66.59;98424.66;4970705;28;20074;-78
2023/12/07 02:25:11;;;;;;;6.93;3.95;;;;;;;9.14;66.73;98426.31;4954282;28;20035;-78
2023/12/07 02:27:40;;;;;;;5.72;3.97;;;;;;;9.15;66.60;98430.56;4970391;28;20503;-78
2023/12/07 02:30:07;;;;;;;6.10;3.85;;;;;;;9.11;66.75;98418.75;4954100;29;20069;-80
2023/12/07 02:32:33;;;;;;;6.85;3.88;;;;;;;9.16;66.62;98432.25;4953372;29;20023;-78
2023/12/07 02:34:59;;;;;;;7.80;4.28;;;;;;;9.13;66.58;98411.63;4968167;28;20083;-78
2023/12/07 02:37:27;;;;;;;6.28;3.95;;;;;;;9.19;66.77;98426.00;4970290;28;20039;-77
2023/12/07 02:39:53;;;;;;;6.33;4.30;;;;;;;9.17;66.92;98423.50;4970177;28;20054;-78
2023/12/07 02:42:18;;;;;;;8.05;4.53;;;;;;;9.15;66.66;98417.56;4969993;28;20514;-78
2023/12/07 02:44:44;;;;;;;7.55;4.55;;;;;;;9.19;66.40;98429.41;4969993;28;20027;-77
2023/12/07 02:47:09;;;;;;;9.18;4.28;;;;;;;9.20;66.75;98425.03;4953694;29;20071;-77
2023/12/07 02:49:35;;;;;;;5.45;4.20;;;;;;;9.17;66.58;98423.50;4953765;29;20031;-79
2023/12/07 02:52:00;;;;;;;6.75;4.28;;;;;;;9.23;66.75;98424.78;4954046;28;20050;-77
2023/12/07 02:54:25;;;;;;;5.68;4.15;;;;;;;9.23;66.71;98428.25;4969975;28;20136;-78
2023/12/07 02:56:51;;;;;;;8.77;4.43;;;;;;;9.24;66.82;98429.88;4969732;28;20403;-80
2023/12/07 02:59:16;;;;;;;5.97;4.40;;;;;;;9.25;66.57;98441.16;4953695;28;20118;-78
2023/12/07 03:01:42;;;;;;;7.25;4.70;;;;;;;9.21;66.46;98429.28;4937233;29;20038;-77
2023/12/07 03:04:07;;;;;;;5.85;4.18;;;;;;;9.25;66.61;98438.56;4937547;29;20147;-79
2023/12/07 03:06:33;;;;;;;6.13;4.15;;;;;;;9.21;66.48;98437.94;4953556;28;20419;-77
2023/12/07 03:08:58;;;;;;;7.25;4.07;;;;;;;9.26;66.71;98447.19;4953556;29;20055;-76
2023/12/07 03:11:24;;;;;;;9.55;4.57;;;;;;;9.24;66.84;98437.69;4953753;28;20051;-79
2023/12/07 03:13:49;;;;;;;6.65;4.43;;;;;;;9.22;66.71;98433.56;4954081;28;20082;-78
2023/12/07 03:16:15;;;;;;;5.38;3.80;;;;;;;9.24;66.71;98436.88;4963311;28;20066;-77
2023/12/07 03:18:40;;;;;;;7.10;4.57;;;;;;;9.20;66.72;98425.03;4969282;28;20035;-77
2023/12/07 03:21:06;;;;;;;6.18;4.10;;;;;;;9.26;66.75;98428.94;4969244;28;20027;-78
2023/12/07 03:23:31;;;;;;;7.53;4.32;;;;;;;9.25;66.68;98428.13;4954646;29;20138;-78
2023/12/07 03:25:57;;;;;;;7.15;3.88;;;;;;;9.20;66.78;98423.25;4968646;28;20114;-78
2023/12/07 03:28:22;;;;;;;6.60;4.00;;;;;;;9.19;66.47;98418.16;4953125;29;20047;-78
2023/12/07 03:30:48;;;;;;;7.35;4.03;;;;;;;9.21;66.62;98432.72;4969039;28;20027;-78
2023/12/07 03:33:13;;;;;;;7.47;4.40;;;;;;;9.22;66.84;98428.34;4969304;28;20042;-78
2023/12/07 03:35:39;;;;;;;6.70;4.28;;;;;;;9.16;66.61;98411.41;4969256;28;20031;-79
2023/12/07 03:38:04;;;;;;;8.25;4.45;;;;;;;9.20;66.59;98427.63;4969455;28;20051;-77
2023/12/07 03:40:30;;;;;;;7.15;4.47;;;;;;;9.18;66.54;98425.13;4969048;28;20023;-79
2023/12/07 03:42:55;;;;;;;9.82;4.45;;;;;;;9.14;66.73;98422.88;4954307;28;20039;-78
2023/12/07 03:45:21;;;;;;;7.15;4.43;;;;;;;9.15;66.50;98434.97;4952707;29;20039;-78
2023/12/07 03:47:46;;;;;;;6.65;4.43;;;;;;;9.11;66.64;98434.38;4952230;29;20054;-78
2023/12/07 03:50:12;;;;;;;8.23;4.13;;;;;;;9.08;66.43;98431.16;4953551;28;20475;-79
2023/12/07 03:52:37;;;;;;;7.57;4.10;;;;;;;9.05;66.50;98437.44;4953004;29;20031;-79
2023/12/07 03:55:03;;;;;;;7.43;4.40;;;;;;;9.02;66.47;98432.44;4953343;28;20456;-79
2023/12/07 03:57:28;;;;;;;6.93;3.88;;;;;;;9.01;66.39;98430.78;4952845;29;20045;-79
2023/12/07 03:59:54;;;;;;;11.63;3.65;;;;;;;8.96;66.57;98428.53;4952899;29;20030;-80
2023/12/07 04:02:19;;;;;;;6.22;3.80;;;;;;;8.98;66.45;98431.84;4953050;29;20139;-79
2023/12/07 04:04:46;;;;;;;5.63;3.70;;;;;;;8.92;66.52;98423.66;4953199;28;20039;-80
2023/12/07 04:07:11;;;;;;;6.07;3.72;;;;;;;8.90;66.62;98421.16;4949299;29;20542;-79
2023/12/07 04:09:37;;;;;;;6.38;4.07;;;;;;;8.92;66.37;98429.72;4949623;29;20036;-78
2023/12/07 04:12:02;;;;;;;7.55;3.80;;;;;;;8.89;66.38;98432.53;4949545;28;20039;-78
2023/12/07 04:14:28;;;;;;;5.63;3.83;;;;;;;8.88;66.28;98433.47;4949668;29;20086;-78
2023/12/07 04:16:53;;;;;;;5.97;3.65;;;;;;;8.87;66.42;98431.81;4949628;29;20095;-79
2023/12/07 04:19:19;;;;;;;7.28;3.58;;;;;;;8.82;66.42;98429.56;4949451;29;20395;-79
2023/12/07 04:21:44;;;;;;;8.07;3.88;;;;;;;8.82;66.07;98433.91;4946923;29;20084;-79
2023/12/07 04:24:10;;;;;;;7.47;4.03;;;;;;;8.80;66.47;98434.03;4968970;28;20035;-79
2023/12/07 04:26:35;;;;;;;6.13;4.22;;;;;;;8.79;66.27;98437.59;4952822;29;20047;-79
2023/12/07 04:29:01;;;;;;;6.78;3.90;;;;;;;8.77;66.02;98438.66;4952194;29;20046;-78
2023/12/07 04:31:26;;;;;;;6.35;3.53;;;;;;;8.75;66.47;98432.72;4951558;29;20039;-81
2023/12/07 04:33:52;;;;;;;11.00;4.20;;;;;;;8.74;66.13;98441.47;4952829;28;20499;-79
2023/12/07 04:36:17;;;;;;;7.82;4.13;;;;;;;8.64;66.09;98431.72;4953230;29;20479;-79
2023/12/07 04:38:43;;;;;;;7.35;4.20;;;;;;;8.69;65.84;98444.41;4955590;28;20510;-79
2023/12/07 04:41:09;;;;;;;6.47;4.07;;;;;;;8.67;66.11;98449.72;4958659;28;20027;-89
2023/12/07 04:43:34;;;;;;;5.97;3.75;;;;;;;8.67;66.01;98460.13;4957341;28;20023;-82
2023/12/07 04:46:00;;;;;;;8.20;4.50;;;;;;;8.66;66.21;98455.03;4958302;28;20403;-81
2023/12/07 04:48:25;;;;;;;8.55;3.80;;;;;;;8.59;65.83;98448.63;4958355;28;20686;-82
2023/12/07 04:50:56;;;;;;;6.22;3.70;;;;;;;8.57;65.81;98445.28;4958139;28;20057;-89
2023/12/07 04:53:22;;;;;;;5.22;3.35;;;;;;;8.70;70.23;98456.50;4972809;28;20031;-76
2023/12/07 04:55:50;;;;;;;5.72;3.33;;;;;;;9.19;77.67;98468.47;4955839;29;20046;-76
2023/12/07 04:58:15;;;;;;;6.65;3.45;;;;;;;9.40;78.11;98465.19;4955787;29;20026;-75
2023/12/07 05:00:41;;;;;;;6.97;3.10;;;;;;;9.39;75.80;98460.91;4955515;29;20032;-78
2023/12/07 05:03:06;;;;;;;10.75;3.42;;;;;;;9.31;73.62;98465.88;4956531;28;20114;-79
2023/12/07 05:05:32;;;;;;;6.43;3.75;;;;;;;9.22;72.30;98463.03;4955245;28;20035;-76
2023/12/07 05:07:57;;;;;;;7.72;3.47;;;;;;;9.18;72.61;98456.38;4958295;28;20067;-78
2023/12/07 05:10:23;;;;;;;5.03;2.92;;;;;;;9.21;73.08;98471.78;4957390;28;20138;-81
2023/12/07 05:12:48;;;;;;;9.68;3.00;;;;;;;9.60;78.46;98477.53;4968817;28;20066;-75
2023/12/07 05:15:14;;;;;;;5.63;2.50;;;;;;;9.55;75.48;98465.78;4955508;28;20462;-75
2023/12/07 05:17:39;;;;;;;5.68;3.08;;;;;;;9.46;73.78;98474.34;4971996;28;20038;-84
2023/12/07 05:20:07;;;;;;;6.32;2.90;;;;;;;9.34;72.70;98457.84;4955446;29;20051;-83
2023/12/07 05:22:32;;;;;;;5.70;3.10;;;;;;;9.24;71.94;98461.13;4971742;28;20027;-77
2023/12/07 05:24:58;;;;;;;5.45;2.70;;;;;;;9.18;71.50;98463.38;4971738;28;20031;-77
2023/12/07 05:27:23;;;;;;;5.97;3.05;;;;;;;9.11;70.91;98478.63;4955441;29;20031;-80
2023/12/07 05:29:49;;;;;;;5.95;3.00;;;;;;;9.05;70.62;98472.09;4954456;28;20545;-78
2023/12/07 05:32:14;;;;;;;4.95;2.55;;;;;;;8.94;70.30;98468.66;4933712;29;20118;-79
2023/12/07 05:34:40;;;;;;;4.47;2.72;;;;;;;8.92;70.28;98478.31;4970786;28;20046;-78
2023/12/07 05:37:05;;;;;;;6.32;2.63;;;;;;;8.86;70.15;98474.41;4941756;28;20126;-79
2023/12/07 05:39:31;;;;;;;4.13;2.67;;;;;;;8.83;69.82;98474.63;4951583;29;20082;-78
2023/12/07 05:41:57;;;;;;;3.28;2.30;;;;;;;8.77;69.96;98480.28;4955966;28;20031;-79
2023/12/07 05:44:22;;;;;;;5.55;2.47;;;;;;;8.71;69.61;98480.72;4959609;28;20035;-78
2023/12/07 05:46:49;;;;;;;4.60;2.55;;;;;;;8.71;69.56;98481.56;4970962;28;20038;-79
2023/12/07 05:49:14;;;;;;;3.90;2.58;;;;;;;8.68;69.40;98487.81;4970389;28;20023;-78
2023/12/07 05:51:40;;;;;;;3.28;2.22;;;;;;;8.68;69.05;98490.44;4971180;28;20039;-79
2023/12/07 05:54:05;;;;;;;3.42;2.38;;;;;;;8.67;68.60;98491.34;4954258;29;20468;-78
2023/12/07 05:56:31;;;;;;;4.43;2.17;;;;;;;8.63;68.49;98494.28;4970665;28;20098;-79
2023/12/07 05:58:57;;;;;;;3.83;2.40;;;;;;;8.69;68.63;98501.66;4971011;28;20058;-77
2023/12/07 06:01:22;;;;;;;8.30;2.22;;;;;;;8.73;68.08;98502.25;4954779;29;20034;-78
2023/12/07 06:03:48;;;;;;;3.45;2.20;;;;;;;8.75;68.25;98503.00;4971120;28;20385;-80
2023/12/07 06:06:13;;;;;;;3.38;2.05;;;;;;;8.77;67.82;98501.94;4970186;28;20054;-79
2023/12/07 06:08:39;;;;;;;3.08;1.90;;;;;;;8.76;67.74;98496.84;4938382;29;20047;-79
2023/12/07 06:11:05;;;;;;;3.45;1.88;;;;;;;8.79;67.39;98500.06;4954697;29;20498;-78
2023/12/07 06:13:31;;;;;;;2.75;1.80;;;;;;;8.87;67.16;98507.28;4954472;28;20027;-80
2023/12/07 06:15:56;;;;;;;3.42;1.83;;;;;;;8.88;67.02;98509.78;4938815;29;20537;-79
2023/12/07 06:18:22;;;;;;;3.78;1.98;;;;;;;8.92;66.48;98502.59;4953812;28;20042;-78
2023/12/07 06:20:47;;;;;;;3.45;1.80;;;;;;;8.92;66.86;98499.16;4954771;28;20027;-81
2023/12/07 06:23:13;;;;;;;2.70;1.70;;;;;;;8.92;66.53;98494.78;4945118;28;20042;-78
2023/12/07 06:25:39;;;;;;;2.05;1.30;;;;;;;8.99;66.41;98505.56;4955240;28;20110;-79
2023/12/07 06:28:05;;;;;;;3.10;1.73;;;;;;;9.05;66.14;98510.34;4960625;28;20046;-78
2023/12/07 06:30:30;;;;;;;3.67;1.48;;;;;;;9.13;66.03;98512.38;4954490;29;20023;-80
2023/12/07 06:32:56;;;;;;;2.55;1.55;;;;;;;9.27;65.86;98519.19;4955050;28;20051;-79
2023/12/07 06:35:21;;;;;;;3.95;1.70;;;;;;;9.36;65.50;98521.91;4938239;28;20133;-78
2023/12/07 06:37:47;;;;;;;2.03;1.48;;;;;;;9.54;65.25;98535.34;4954270;29;20068;-79
2023/12/07 06:40:12;;;;;;;2.03;1.48;;;;;;;9.62;65.19;98542.56;4970314;28;20024;-80
2023/12/07 06:42:38;;;;;;;2.35;1.60;;;;;;;9.68;64.58;98544.72;4954014;28;20122;-80
2023/12/07 06:45:04;;;;;;;2.65;1.50;;;;;;;9.73;64.77;98539.97;4954215;29;20031;-81
2023/12/07 06:47:30;;;;;;;2.20;1.52;;;;;;;9.85;66.76;98545.22;4970530;28;20039;-78
2023/12/07 06:49:56;;;;;;;3.78;2.08;;;;;;;10.07;67.46;98540.03;4945105;29;20569;-80
2023/12/07 06:52:21;;;;;;;3.35;1.98;;;;;;;10.15;66.50;98539.41;4927949;29;20047;-80
2023/12/07 06:54:47;;;;;;;2.58;1.70;;;;;;;10.17;65.77;98534.06;4960547;28;20027;-78
2023/12/07 06:57:13;;;;;;;2.38;1.45;;;;;;;10.21;65.19;98538.09;4950347;28;20040;-81
2023/12/07 06:59:38;;;;;;;2.47;1.40;;;;;;;10.28;65.04;98545.34;4953464;29;20170;-80
2023/12/07 07:02:04;;;;;;;3.13;1.77;;;;;;;10.68;71.38;98542.22;4954412;28;20455;-79
2023/12/07 07:04:29;;;;;;;2.90;2.08;;;;;;;10.83;67.67;98548.00;4953589;28;20118;-81
2023/12/07 07:06:55;;;;;;;4.07;2.25;;;;;;;10.88;65.65;98536.34;4932889;29;20043;-82
2023/12/07 07:09:21;;;;;;;5.00;2.38;;;;;;;11.01;64.96;98558.72;4935742;29;20396;-79
2023/12/07 07:11:47;;;;;;;5.75;3.03;;;;;;;11.08;64.01;98560.84;4933212;29;20043;-80
2023/12/07 07:14:13;;;;;;;5.05;2.63;;;;;;;11.16;63.13;98553.22;4953033;28;20042;-80
2023/12/07 07:16:38;;;;;;;6.65;3.20;;;;;;;11.30;62.87;98567.78;4950784;28;20039;-81
2023/12/07 07:19:04;;;;;;;5.20;3.17;;;;;;;11.42;62.27;98558.94;4955422;28;20050;-79
2023/12/07 07:21:30;;;;;;;4.57;2.88;;;;;;;11.60;61.62;98556.56;4947751;28;20059;-77
2023/12/07 07:23:56;;;;;;;5.63;3.03;;;;;;;11.83;61.47;98570.34;4953265;28;20050;-79
2023/12/07 07:26:21;;;;;;;5.57;3.28;;;;;;;12.04;60.93;98559.84;4935968;29;20031;-77
2023/12/07 07:28:47;;;;;;;6.55;3.10;;;;;;;12.35;60.50;98557.25;4949405;28;20106;-79
2023/12/07 07:31:12;;;;;;;5.05;3.05;;;;;;;12.77;59.88;98546.56;4926195;29;20102;-78
2023/12/07 07:33:38;;;;;;;6.80;3.15;;;;;;;13.21;59.42;98559.31;4935125;29;20039;-76
2023/12/07 07:36:04;;;;;;;8.93;3.53;;;;;;;13.49;58.24;98543.72;4925036;29;20574;-76
2023/12/07 07:38:29;;;;;;;9.15;3.70;;;;;;;13.74;57.05;98553.63;4948325;29;20031;-77
2023/12/07 07:40:55;;;;;;;5.03;3.25;;;;;;;14.00;56.22;98550.38;4937139;29;20034;-78
2023/12/07 07:43:21;;;;;;;7.38;1.90;;;;;;;14.72;63.85;98552.41;4936789;29;20489;-77
2023/12/07 07:45:46;;;;;;;14.05;2.20;;;;;;;15.00;60.55;98554.00;4953597;29;20070;-74
2023/12/07 07:48:12;;;;;;;4.43;2.30;;;;;;;15.16;57.54;98555.13;4954113;28;20043;-79
2023/12/07 07:50:37;;;;;;;5.90;2.72;;;;;;;15.35;55.49;98554.97;4933274;29;20036;-77
2023/12/07 07:53:03;;;;;;;7.75;3.03;;;;;;;15.55;54.17;98557.41;4935360;29;20498;-82
2023/12/07 07:55:29;;;;;;;3.47;2.58;;;;;;;15.71;53.04;98560.16;4932006;28;20035;-77
2023/12/07 07:57:55;;;;;;;4.00;2.70;;;;;;;15.65;52.36;98563.41;4953797;28;20075;-81
2023/12/07 08:00:21;;;;;;;3.75;2.50;;;;;;;15.78;51.46;98575.38;4937303;29;20063;-81
2023/12/07 08:02:46;;;;;;;3.67;2.50;;;;;;;15.87;50.44;98570.00;4937423;29;20039;-79
2023/12/07 08:05:12;;;;;;;3.90;2.22;;;;;;;15.89;50.03;98567.22;4953908;29;20046;-82
2023/12/07 08:07:39;;;;;;;3.25;2.30;;;;;;;15.89;49.34;98569.84;4949729;28;20051;-81
2023/12/07 08:10:05;;;;;;;3.95;2.80;;;;;;;15.88;48.79;98573.47;4922049;29;20093;-80
2023/12/07 08:12:31;;;;;;;3.25;2.30;;;;;;;15.82;48.27;98574.91;4970433;28;20023;-80
2023/12/07 08:14:56;;;;;;;3.20;2.17;;;;;;;15.77;47.77;98574.53;4956875;29;20498;-83
2023/12/07 08:17:22;;;;;;;4.57;2.40;;;;;;;15.74;47.63;98573.00;4957395;28;20039;-80
2023/12/07 08:19:47;;;;;;;3.85;2.55;;;;;;;15.66;47.45;98567.69;4956902;28;20054;-80
2023/12/07 08:22:13;;;;;;;9.85;2.70;;;;;;;15.58;49.81;98572.09;4957225;28;20050;-77
2023/12/07 08:24:39;;;;;;;6.45;2.72;;;;;;;15.49;48.92;98576.44;4957120;28;20567;-79
2023/12/07 08:27:05;;;;;;;6.47;2.60;;;;;;;15.38;48.90;98577.50;4957161;28;20031;-78
2023/12/07 08:29:30;;;;;;;2.97;2.15;;;;;;;15.31;48.77;98587.81;4940853;29;20406;-79
2023/12/07 08:31:56;;;;;;;3.80;2.70;;;;;;;15.24;48.78;98578.03;4941381;29;20047;-80
2023/12/07 08:34:21;;;;;;;3.65;2.70;;;;;;;15.12;48.47;98586.16;4941019;29;20043;-82
2023/12/07 08:36:47;;;;;;;4.38;2.50;;;;;;;15.04;48.55;98574.72;4956738;29;20031;-81
2023/12/07 08:39:13;;;;;;;5.47;2.83;;;;;;;14.94;48.59;98573.00;4956948;28;20047;-83
2023/12/07 08:41:38;;;;;;;4.35;2.45;;;;;;;14.86;48.71;98578.16;4973381;28;20031;-81
2023/12/07 08:44:04;;;;;;;3.70;2.80;;;;;;;14.76;48.63;98567.72;4957077;29;20035;-81
2023/12/07 08:46:30;;;;;;;4.40;3.20;;;;;;;14.75;48.65;98573.13;4940285;29;20039;-81
2023/12/07 08:48:56;;;;;;;4.68;3.20;;;;;;;14.67;48.96;98576.47;4972500;28;20051;-80
2023/12/07 08:51:21;;;;;;;5.03;3.03;;;;;;;14.65;49.07;98581.88;4956432;28;20403;-81
2023/12/07 08:53:47;;;;;;;3.38;2.65;;;;;;;14.64;49.09;98574.16;4956623;28;20043;-82
2023/12/07 08:56:12;;;;;;;5.25;2.92;;;;;;;14.57;48.88;98566.00;4956635;28;20071;-78
2023/12/07 08:58:38;;;;;;;4.82;2.97;;;;;;;14.51;48.85;98563.13;4956260;29;20039;-80
2023/12/07 09:01:05;;;;;;;4.35;3.00;;;;;;;14.52;48.85;98573.50;4939857;29;20066;-79
2023/12/07 09:03:31;;;;;;;6.25;2.95;;;;;;;14.50;48.60;98564.94;4957116;28;20415;-78
2023/12/07 09:05:57;;;;;;;4.18;3.05;;;;;;;14.47;48.66;98558.19;4940172;29;20034;-79
2023/12/07 09:08:23;;;;;;;4.70;2.88;;;;;;;14.53;48.44;98569.91;4940924;29;20051;-78
2023/12/07 09:10:51;;;;;;;4.78;3.22;;;;;;;14.50;48.47;98566.72;4955515;29;20035;-80
2023/12/07 09:13:17;;;;;;;6.30;2.87;;;;;;;14.46;48.43;98571.44;4957729;28;20050;-82
2023/12/07 09:15:42;;;;;;;5.03;3.03;;;;;;;14.40;48.53;98566.78;4955931;29;20469;-80
2023/12/07 09:18:08;;;;;;;3.83;2.70;;;;;;;14.30;48.47;98565.03;4955814;29;20039;-82
2023/12/07 09:20:33;;;;;;;3.97;2.65;;;;;;;14.29;48.50;98571.25;4956014;29;20031;-79
2023/12/07 09:22:59;;;;;;;4.45;2.90;;;;;;;14.32;48.47;98564.88;4956704;28;20376;-79
2023/12/07 09:25:27;;;;;;;4.70;2.60;;;;;;;14.28;48.48;98551.22;4954827;28;20087;-79
2023/12/07 09:27:53;;;;;;;7.35;2.72;;;;;;;14.39;48.53;98560.72;4955950;29;20444;-78
2023/12/07 09:30:18;;;;;;;3.60;2.50;;;;;;;14.47;48.02;98547.66;4955458;28;20047;-81
2023/12/07 09:32:44;;;;;;;3.55;2.63;;;;;;;14.71;47.73;98554.19;4939424;29;20036;-81
2023/12/07 09:35:14;;;;;;;3.85;2.58;;;;;;;15.02;47.36;98557.31;4939470;29;20042;-79
2023/12/07 09:37:40;;;;;;;6.22;2.72;;;;;;;15.25;46.94;98556.03;4970965;28;20191;-78
2023/12/07 09:40:07;;;;;;;13.63;8.32;;;;;;;15.44;46.53;98544.50;4971641;28;20507;-78
2023/12/07 09:42:32;;;;;;;13.45;8.20;;;;;;;15.61;46.26;98545.44;4955372;28;20123;-79
2023/12/07 09:44:58;;;;;;;14.27;9.50;;;;;;;15.59;46.27;98542.16;4955570;29;20478;-80
2023/12/07 09:47:25;;;;;;;22.75;10.68;;;;;;;15.60;46.29;98542.00;4955309;28;20498;-81
2023/12/07 09:49:50;;;;;;;15.73;10.18;;;;;;;15.64;46.19;98540.72;4939706;29;20475;-79
2023/12/07 09:52:16;;;;;;;14.23;8.60;;;;;;;15.61;46.23;98534.91;4955075;28;20066;-80
2023/12/07 09:54:42;;;;;;;11.13;7.60;;;;;;;15.60;46.02;98538.53;4955765;29;20031;-78
2023/12/07 09:57:09;;;;;;;11.93;7.15;;;;;;;15.54;45.95;98540.81;4956426;28;20031;-81
2023/12/07 09:59:38;;;;;;;15.98;7.18;;;;;;;15.38;46.31;98535.41;4956227;29;20038;-81
2023/12/07 10:02:04;;;;;;;10.75;6.30;;;;;;;15.40;46.44;98548.41;4939432;29;20031;-81
2023/12/07 10:04:29;;;;;;;8.77;5.82;;;;;;;15.35;46.29;98546.25;4955267;29;20055;-81
2023/12/07 10:06:56;;;;;;;7.85;5.10;;;;;;;15.28;46.24;98538.13;4955303;29;20031;-82
2023/12/07 10:09:22;;;;;;;7.13;4.60;;;;;;;15.29;46.15;98537.19;4955585;28;20491;-81
2023/12/07 10:11:47;;;;;;;7.57;4.63;;;;;;;15.25;46.09;98527.13;4955974;28;20051;-81
2023/12/07 10:14:13;;;;;;;8.40;4.30;;;;;;;15.28;45.95;98530.25;4939101;29;20114;-81
2023/12/07 10:16:39;;;;;;;5.72;3.88;;;;;;;15.37;45.81;98526.72;4955132;28;20542;-82
2023/12/07 10:19:14;;;;;;;6.25;3.78;;;;;;;15.44;45.65;98529.56;4954361;28;20055;-80
2023/12/07 10:21:40;;;;;;;5.00;3.60;;;;;;;15.48;45.74;98522.16;4955103;28;20047;-81
2023/12/07 10:24:05;;;;;;;5.45;3.35;;;;;;;15.51;45.46;98525.34;4955316;29;20035;-81
2023/12/07 10:26:31;;;;;;;4.80;3.17;;;;;;;15.46;45.32;98518.88;4954351;29;20115;-79
2023/12/07 10:28:58;;;;;;;4.72;3.25;;;;;;;15.47;45.50;98521.34;4954564;29;20055;-80
2023/12/07 10:31:24;;;;;;;6.72;3.33;;;;;;;15.41;45.50;98515.88;4954828;28;20428;-79
2023/12/07 10:33:49;;;;;;;5.85;2.90;;;;;;;15.37;45.58;98518.00;4970957;28;20082;-81
2023/12/07 10:36:15;;;;;;;4.82;3.53;;;;;;;15.30;45.61;98523.03;4955324;28;20027;-80
2023/12/07 10:38:41;;;;;;;6.35;3.33;;;;;;;15.17;45.69;98520.78;4955901;28;20035;-80
2023/12/07 10:41:07;;;;;;;4.38;2.60;;;;;;;15.09;45.86;98526.00;4954227;28;20467;-78
2023/12/07 10:43:36;;;;;;;6.03;3.03;;;;;;;15.00;46.28;98519.81;4954400;28;20089;-79
2023/12/07 10:46:02;;;;;;;3.72;2.40;;;;;;;14.97;46.25;98516.66;4954316;28;20109;-79
2023/12/07 10:48:31;;;;;;;7.68;2.97;;;;;;;14.89;46.31;98517.41;4937697;29;20054;-81
2023/12/07 10:50:56;;;;;;;3.42;2.50;;;;;;;14.86;46.20;98520.34;4938131;29;20024;-80
2023/12/07 10:53:26;;;;;;;4.43;2.47;;;;;;;14.79;46.46;98519.31;4954402;29;20043;-78
2023/12/07 10:56:00;;;;;;;7.85;2.47;;;;;;;14.78;46.47;98518.47;4953809;28;20023;-79
2023/12/07 10:58:26;;;;;;;3.75;2.53;;;;;;;14.71;46.68;98513.97;4953891;28;20407;-79
2023/12/07 11:00:55;;;;;;;5.07;2.50;;;;;;;14.67;46.58;98523.13;4937875;29;20185;-81
2023/12/07 11:03:21;;;;;;;6.03;2.53;;;;;;;14.60;46.87;98512.38;4953644;29;20588;-80
2023/12/07 11:05:47;;;;;;;4.70;2.65;;;;;;;14.57;46.85;98521.34;4954430;28;20175;-80
2023/12/07 11:08:28;;;;;;;3.97;2.63;;;;;;;14.49;46.87;98518.63;4954976;28;20050;-81
2023/12/07 11:11:05;;;;;;;3.45;2.40;;;;;;;14.41;46.77;98514.13;4937955;29;20038;-81
2023/12/07 11:13:32;;;;;;;3.70;2.60;;;;;;;14.32;47.04;98509.75;4953522;28;20133;-81
2023/12/07 11:15:57;;;;;;;3.00;2.30;;;;;;;14.34;47.09;98515.66;4938889;29;20031;-80
2023/12/07 11:18:29;;;;;;;4.45;2.47;;;;;;;14.31;47.02;98521.22;4955015;29;20046;-84
2023/12/07 11:20:55;;;;;;;4.32;2.40;;;;;;;14.25;47.25;98512.13;4955025;28;20049;-83
2023/12/07 11:23:21;;;;;;;4.78;2.53;;;;;;;14.25;47.35;98512.13;4937800;29;20483;-81
2023/12/07 11:25:47;;;;;;;6.03;2.55;;;;;;;14.29;47.11;98510.03;4954012;29;20034;-84
2023/12/07 11:28:12;;;;;;;3.88;2.45;;;;;;;14.32;47.15;98519.41;4937571;29;20093;-80
2023/12/07 11:30:40;;;;;;;3.72;2.80;;;;;;;14.34;47.09;98517.47;4953668;28;20511;-80